sensor_id;sensor_type;location;lat;lon;timestamp;P1;durP1;ratioP1;P2;durP2;ratioP2
15905;SDS011;8051;50.820;4.884;2023-09-18T00:01:29;12.70;;;11.53;;
15905;SDS011;8051;50.820;4.884;2023-09-18T00:03:57;12.77;;;11.60;;
15905;SDS011;8051;50.820;4.884;2023-09-18T00:06:24;12.37;;;11.07;;
15905;SDS011;8051;50.820;4.884;2023-09-18T00:08:52;13.77;;;12.63;;
15905;SDS011;8051;50.820;4.884;2023-09-18T00:11:21;13.73;;;12.37;;
15905;SDS011;8051;50.820;4.884;2023-09-18T00:13:49;13.20;;;12.00;;
15905;SDS011;8051;50.820;4.884;2023-09-18T00:16:16;14.47;;;13.23;;
15905;SDS011;8051;50.820;4.884;2023-09-18T00:18:44;13.43;;;12.23;;
15905;SDS011;8051;50.820;4.884;2023-09-18T00:21:11;14.70;;;12.17;;
15905;SDS011;8051;50.820;4.884;2023-09-18T00:23:39;13.47;;;12.17;;
15905;SDS011;8051;50.820;4.884;2023-09-18T00:26:07;14.60;;;12.63;;
15905;SDS011;8051;50.820;4.884;2023-09-18T00:28:36;13.53;;;12.20;;
15905;SDS011;8051;50.820;4.884;2023-09-18T00:31:03;13.23;;;12.03;;
15905;SDS011;8051;50.820;4.884;2023-09-18T00:33:31;11.67;;;10.47;;
15905;SDS011;8051;50.820;4.884;2023-09-18T00:35:58;13.50;;;12.27;;
15905;SDS011;8051;50.820;4.884;2023-09-18T00:38:25;15.27;;;12.13;;
15905;SDS011;8051;50.820;4.884;2023-09-18T00:40:53;13.10;;;11.80;;
15905;SDS011;8051;50.820;4.884;2023-09-18T00:43:20;13.37;;;12.10;;
15905;SDS011;8051;50.820;4.884;2023-09-18T00:45:49;13.27;;;12.00;;
15905;SDS011;8051;50.820;4.884;2023-09-18T00:48:16;12.90;;;11.60;;
15905;SDS011;8051;50.820;4.884;2023-09-18T00:50:44;14.03;;;12.47;;
15905;SDS011;8051;50.820;4.884;2023-09-18T00:53:13;13.90;;;12.47;;
15905;SDS011;8051;50.820;4.884;2023-09-18T00:55:42;16.00;;;12.47;;
15905;SDS011;8051;50.820;4.884;2023-09-18T00:58:10;18.47;;;13.10;;
15905;SDS011;8051;50.820;4.884;2023-09-18T01:00:38;13.73;;;12.13;;
15905;SDS011;8051;50.820;4.884;2023-09-18T01:03:07;14.33;;;12.93;;
15905;SDS011;8051;50.820;4.884;2023-09-18T01:05:36;14.07;;;12.70;;
15905;SDS011;8051;50.820;4.884;2023-09-18T01:08:04;16.57;;;12.77;;
15905;SDS011;8051;50.820;4.884;2023-09-18T01:10:32;16.37;;;12.97;;
15905;SDS011;8051;50.820;4.884;2023-09-18T01:13:08;14.33;;;13.10;;
15905;SDS011;8051;50.820;4.884;2023-09-18T01:15:42;16.97;;;12.10;;
15905;SDS011;8051;50.820;4.884;2023-09-18T01:18:16;15.00;;;10.63;;
15905;SDS011;8051;50.820;4.884;2023-09-18T01:20:43;11.00;;;9.90;;
15905;SDS011;8051;50.820;4.884;2023-09-18T01:23:12;10.67;;;9.67;;
15905;SDS011;8051;50.820;4.884;2023-09-18T01:25:40;15.43;;;10.73;;
15905;SDS011;8051;50.820;4.884;2023-09-18T01:28:07;15.63;;;12.67;;
15905;SDS011;8051;50.820;4.884;2023-09-18T01:30:35;15.40;;;13.80;;
15905;SDS011;8051;50.820;4.884;2023-09-18T01:33:03;17.70;;;12.53;;
15905;SDS011;8051;50.820;4.884;2023-09-18T01:35:31;13.57;;;12.23;;
15905;SDS011;8051;50.820;4.884;2023-09-18T01:38:00;14.10;;;12.37;;
15905;SDS011;8051;50.820;4.884;2023-09-18T01:40:29;14.50;;;12.47;;
15905;SDS011;8051;50.820;4.884;2023-09-18T01:42:58;15.77;;;11.07;;
15905;SDS011;8051;50.820;4.884;2023-09-18T01:45:26;15.17;;;11.83;;
15905;SDS011;8051;50.820;4.884;2023-09-18T01:47:53;18.63;;;11.73;;
15905;SDS011;8051;50.820;4.884;2023-09-18T01:50:21;16.67;;;11.57;;
15905;SDS011;8051;50.820;4.884;2023-09-18T01:52:48;16.07;;;10.97;;
15905;SDS011;8051;50.820;4.884;2023-09-18T01:55:16;13.30;;;11.13;;
15905;SDS011;8051;50.820;4.884;2023-09-18T01:57:45;17.00;;;12.10;;
15905;SDS011;8051;50.820;4.884;2023-09-18T02:00:13;17.23;;;11.77;;
15905;SDS011;8051;50.820;4.884;2023-09-18T02:02:41;12.07;;;10.33;;
15905;SDS011;8051;50.820;4.884;2023-09-18T02:05:09;17.77;;;11.70;;
15905;SDS011;8051;50.820;4.884;2023-09-18T02:07:36;14.67;;;11.33;;
15905;SDS011;8051;50.820;4.884;2023-09-18T02:10:04;15.13;;;10.70;;
15905;SDS011;8051;50.820;4.884;2023-09-18T02:12:32;16.27;;;12.63;;
15905;SDS011;8051;50.820;4.884;2023-09-18T02:15:01;19.57;;;12.33;;
15905;SDS011;8051;50.820;4.884;2023-09-18T02:17:31;24.20;;;12.67;;
15905;SDS011;8051;50.820;4.884;2023-09-18T02:19:59;12.97;;;11.43;;
15905;SDS011;8051;50.820;4.884;2023-09-18T02:22:31;15.90;;;10.93;;
15905;SDS011;8051;50.820;4.884;2023-09-18T02:24:59;18.23;;;11.47;;
15905;SDS011;8051;50.820;4.884;2023-09-18T02:27:26;14.27;;;11.10;;
15905;SDS011;8051;50.820;4.884;2023-09-18T02:29:54;14.43;;;11.50;;
15905;SDS011;8051;50.820;4.884;2023-09-18T02:32:23;14.60;;;11.53;;
15905;SDS011;8051;50.820;4.884;2023-09-18T02:34:50;14.50;;;11.60;;
15905;SDS011;8051;50.820;4.884;2023-09-18T02:37:18;16.17;;;11.63;;
15905;SDS011;8051;50.820;4.884;2023-09-18T02:39:45;13.87;;;11.17;;
15905;SDS011;8051;50.820;4.884;2023-09-18T02:42:14;11.00;;;9.80;;
15905;SDS011;8051;50.820;4.884;2023-09-18T02:44:42;15.50;;;8.77;;
15905;SDS011;8051;50.820;4.884;2023-09-18T02:47:09;10.83;;;7.60;;
15905;SDS011;8051;50.820;4.884;2023-09-18T02:49:38;9.47;;;7.67;;
15905;SDS011;8051;50.820;4.884;2023-09-18T02:52:06;11.07;;;8.00;;
15905;SDS011;8051;50.820;4.884;2023-09-18T02:54:33;8.60;;;7.63;;
15905;SDS011;8051;50.820;4.884;2023-09-18T03:00:24;10.60;;;6.43;;
15905;SDS011;8051;50.820;4.884;2023-09-18T03:02:51;10.40;;;6.70;;
15905;SDS011;8051;50.820;4.884;2023-09-18T03:05:20;8.20;;;5.83;;
15905;SDS011;8051;50.820;4.884;2023-09-18T03:07:48;10.07;;;5.27;;
15905;SDS011;8051;50.820;4.884;2023-09-18T03:10:15;9.20;;;4.87;;
15905;SDS011;8051;50.820;4.884;2023-09-18T03:12:43;7.93;;;4.80;;
15905;SDS011;8051;50.820;4.884;2023-09-18T03:15:14;6.63;;;4.50;;
15905;SDS011;8051;50.820;4.884;2023-09-18T03:17:42;6.80;;;4.50;;
15905;SDS011;8051;50.820;4.884;2023-09-18T03:20:09;4.70;;;3.77;;
15905;SDS011;8051;50.820;4.884;2023-09-18T03:22:39;7.37;;;4.37;;
15905;SDS011;8051;50.820;4.884;2023-09-18T03:25:07;4.80;;;4.30;;
15905;SDS011;8051;50.820;4.884;2023-09-18T03:27:35;5.33;;;4.17;;
15905;SDS011;8051;50.820;4.884;2023-09-18T03:30:03;5.13;;;3.70;;
15905;SDS011;8051;50.820;4.884;2023-09-18T03:32:32;4.17;;;3.20;;
15905;SDS011;8051;50.820;4.884;2023-09-18T03:35:02;3.37;;;3.03;;
15905;SDS011;8051;50.820;4.884;2023-09-18T03:37:31;4.13;;;3.57;;
15905;SDS011;8051;50.820;4.884;2023-09-18T03:39:59;7.90;;;3.40;;
15905;SDS011;8051;50.820;4.884;2023-09-18T03:42:28;4.30;;;3.37;;
15905;SDS011;8051;50.820;4.884;2023-09-18T03:44:55;3.60;;;3.27;;
15905;SDS011;8051;50.820;4.884;2023-09-18T03:47:23;3.40;;;3.10;;
15905;SDS011;8051;50.820;4.884;2023-09-18T03:49:50;4.80;;;3.20;;
15905;SDS011;8051;50.820;4.884;2023-09-18T03:52:18;6.20;;;3.10;;
15905;SDS011;8051;50.820;4.884;2023-09-18T03:54:45;4.53;;;3.20;;
15905;SDS011;8051;50.820;4.884;2023-09-18T03:57:14;4.90;;;3.37;;
15905;SDS011;8051;50.820;4.884;2023-09-18T03:59:42;4.23;;;3.00;;
15905;SDS011;8051;50.820;4.884;2023-09-18T04:02:09;3.43;;;3.10;;
15905;SDS011;8051;50.820;4.884;2023-09-18T04:04:36;3.40;;;3.13;;
15905;SDS011;8051;50.820;4.884;2023-09-18T04:07:05;4.87;;;3.77;;
15905;SDS011;8051;50.820;4.884;2023-09-18T04:09:33;3.63;;;3.33;;
15905;SDS011;8051;50.820;4.884;2023-09-18T04:12:01;3.73;;;3.37;;
15905;SDS011;8051;50.820;4.884;2023-09-18T04:14:32;6.57;;;3.63;;
15905;SDS011;8051;50.820;4.884;2023-09-18T04:16:59;3.50;;;3.17;;
15905;SDS011;8051;50.820;4.884;2023-09-18T04:19:27;6.33;;;3.80;;
15905;SDS011;8051;50.820;4.884;2023-09-18T04:21:54;5.37;;;3.17;;
15905;SDS011;8051;50.820;4.884;2023-09-18T04:24:22;4.33;;;3.40;;
15905;SDS011;8051;50.820;4.884;2023-09-18T04:26:49;5.73;;;3.70;;
15905;SDS011;8051;50.820;4.884;2023-09-18T04:29:17;3.20;;;2.90;;
15905;SDS011;8051;50.820;4.884;2023-09-18T04:31:46;3.87;;;3.40;;
15905;SDS011;8051;50.820;4.884;2023-09-18T04:34:14;6.90;;;4.30;;
15905;SDS011;8051;50.820;4.884;2023-09-18T04:36:41;5.47;;;3.60;;
15905;SDS011;8051;50.820;4.884;2023-09-18T04:39:09;4.67;;;4.33;;
15905;SDS011;8051;50.820;4.884;2023-09-18T04:41:36;5.97;;;4.40;;
15905;SDS011;8051;50.820;4.884;2023-09-18T04:44:04;4.43;;;4.03;;
15905;SDS011;8051;50.820;4.884;2023-09-18T04:46:32;5.60;;;4.20;;
15905;SDS011;8051;50.820;4.884;2023-09-18T04:49:03;5.07;;;4.67;;
15905;SDS011;8051;50.820;4.884;2023-09-18T04:51:30;6.30;;;5.60;;
15905;SDS011;8051;50.820;4.884;2023-09-18T04:53:59;5.37;;;4.87;;
15905;SDS011;8051;50.820;4.884;2023-09-18T04:56:27;7.47;;;5.33;;
15905;SDS011;8051;50.820;4.884;2023-09-18T04:58:55;7.60;;;5.13;;
15905;SDS011;8051;50.820;4.884;2023-09-18T05:01:23;8.87;;;5.20;;
15905;SDS011;8051;50.820;4.884;2023-09-18T05:03:51;7.90;;;5.00;;
15905;SDS011;8051;50.820;4.884;2023-09-18T05:06:20;5.23;;;4.80;;
15905;SDS011;8051;50.820;4.884;2023-09-18T05:08:48;5.77;;;5.27;;
15905;SDS011;8051;50.820;4.884;2023-09-18T05:11:16;7.57;;;5.30;;
15905;SDS011;8051;50.820;4.884;2023-09-18T05:13:45;6.77;;;5.23;;
15905;SDS011;8051;50.820;4.884;2023-09-18T05:16:12;4.93;;;4.07;;
15905;SDS011;8051;50.820;4.884;2023-09-18T05:18:39;5.27;;;4.77;;
15905;SDS011;8051;50.820;4.884;2023-09-18T05:21:09;7.10;;;4.47;;
15905;SDS011;8051;50.820;4.884;2023-09-18T05:23:38;5.23;;;4.07;;
15905;SDS011;8051;50.820;4.884;2023-09-18T05:26:05;4.43;;;4.03;;
15905;SDS011;8051;50.820;4.884;2023-09-18T05:28:33;5.47;;;4.40;;
15905;SDS011;8051;50.820;4.884;2023-09-18T05:31:01;5.20;;;4.70;;
15905;SDS011;8051;50.820;4.884;2023-09-18T05:33:28;6.23;;;4.57;;
15905;SDS011;8051;50.820;4.884;2023-09-18T05:35:56;7.97;;;4.43;;
15905;SDS011;8051;50.820;4.884;2023-09-18T05:38:23;5.80;;;5.23;;
15905;SDS011;8051;50.820;4.884;2023-09-18T05:40:52;5.00;;;4.60;;
15905;SDS011;8051;50.820;4.884;2023-09-18T05:43:20;4.40;;;4.10;;
15905;SDS011;8051;50.820;4.884;2023-09-18T05:45:47;5.90;;;5.40;;
15905;SDS011;8051;50.820;4.884;2023-09-18T05:48:15;6.30;;;5.80;;
15905;SDS011;8051;50.820;4.884;2023-09-18T05:50:42;6.03;;;5.53;;
15905;SDS011;8051;50.820;4.884;2023-09-18T05:53:10;8.03;;;7.33;;
15905;SDS011;8051;50.820;4.884;2023-09-18T05:55:37;7.03;;;6.00;;
15905;SDS011;8051;50.820;4.884;2023-09-18T05:58:06;6.90;;;6.47;;
15905;SDS011;8051;50.820;4.884;2023-09-18T06:00:34;8.33;;;7.70;;
15905;SDS011;8051;50.820;4.884;2023-09-18T06:03:02;8.07;;;7.47;;
15905;SDS011;8051;50.820;4.884;2023-09-18T06:05:31;8.00;;;7.33;;
15905;SDS011;8051;50.820;4.884;2023-09-18T06:07:59;8.77;;;8.13;;
15905;SDS011;8051;50.820;4.884;2023-09-18T06:10:26;9.57;;;8.87;;
15905;SDS011;8051;50.820;4.884;2023-09-18T06:12:54;9.00;;;8.00;;
15905;SDS011;8051;50.820;4.884;2023-09-18T06:15:23;9.03;;;8.53;;
15905;SDS011;8051;50.820;4.884;2023-09-18T06:17:50;9.73;;;9.00;;
15905;SDS011;8051;50.820;4.884;2023-09-18T06:20:18;9.80;;;9.10;;
15905;SDS011;8051;50.820;4.884;2023-09-18T06:22:45;10.67;;;9.53;;
15905;SDS011;8051;50.820;4.884;2023-09-18T06:25:13;9.90;;;8.97;;
15905;SDS011;8051;50.820;4.884;2023-09-18T06:27:41;10.93;;;9.80;;
15905;SDS011;8051;50.820;4.884;2023-09-18T06:30:09;10.23;;;9.50;;
15905;SDS011;8051;50.820;4.884;2023-09-18T06:32:38;10.47;;;9.77;;
15905;SDS011;8051;50.820;4.884;2023-09-18T06:35:06;10.77;;;10.07;;
15905;SDS011;8051;50.820;4.884;2023-09-18T06:37:34;11.47;;;10.30;;
15905;SDS011;8051;50.820;4.884;2023-09-18T06:40:01;10.80;;;10.17;;
15905;SDS011;8051;50.820;4.884;2023-09-18T06:42:31;10.97;;;10.37;;
15905;SDS011;8051;50.820;4.884;2023-09-18T06:44:58;11.17;;;10.30;;
15905;SDS011;8051;50.820;4.884;2023-09-18T06:47:26;12.33;;;11.53;;
15905;SDS011;8051;50.820;4.884;2023-09-18T06:49:55;11.70;;;10.97;;
15905;SDS011;8051;50.820;4.884;2023-09-18T06:52:23;12.10;;;11.20;;
15905;SDS011;8051;50.820;4.884;2023-09-18T06:54:50;11.10;;;10.40;;
15905;SDS011;8051;50.820;4.884;2023-09-18T06:57:18;12.47;;;11.47;;
15905;SDS011;8051;50.820;4.884;2023-09-18T06:59:46;11.60;;;10.90;;
15905;SDS011;8051;50.820;4.884;2023-09-18T07:02:14;11.63;;;10.80;;
15905;SDS011;8051;50.820;4.884;2023-09-18T07:04:42;12.77;;;11.60;;
15905;SDS011;8051;50.820;4.884;2023-09-18T07:07:12;12.87;;;12.10;;
15905;SDS011;8051;50.820;4.884;2023-09-18T07:09:40;13.20;;;12.30;;
15905;SDS011;8051;50.820;4.884;2023-09-18T07:12:08;12.00;;;11.20;;
15905;SDS011;8051;50.820;4.884;2023-09-18T07:14:36;13.50;;;12.07;;
15905;SDS011;8051;50.820;4.884;2023-09-18T07:17:04;13.17;;;12.20;;
15905;SDS011;8051;50.820;4.884;2023-09-18T07:19:31;13.50;;;12.50;;
15905;SDS011;8051;50.820;4.884;2023-09-18T07:21:59;12.63;;;11.60;;
15905;SDS011;8051;50.820;4.884;2023-09-18T07:24:27;12.97;;;12.20;;
15905;SDS011;8051;50.820;4.884;2023-09-18T07:26:55;13.27;;;12.40;;
15905;SDS011;8051;50.820;4.884;2023-09-18T07:29:23;13.73;;;12.53;;
15905;SDS011;8051;50.820;4.884;2023-09-18T07:31:51;14.23;;;13.13;;
15905;SDS011;8051;50.820;4.884;2023-09-18T07:34:19;15.23;;;14.10;;
15905;SDS011;8051;50.820;4.884;2023-09-18T07:36:46;13.97;;;13.23;;
15905;SDS011;8051;50.820;4.884;2023-09-18T07:39:19;15.33;;;14.37;;
15905;SDS011;8051;50.820;4.884;2023-09-18T07:41:48;16.10;;;15.00;;
15905;SDS011;8051;50.820;4.884;2023-09-18T07:44:18;16.80;;;15.40;;
15905;SDS011;8051;50.820;4.884;2023-09-18T07:46:46;17.40;;;16.00;;
15905;SDS011;8051;50.820;4.884;2023-09-18T07:49:13;15.93;;;14.90;;
15905;SDS011;8051;50.820;4.884;2023-09-18T07:51:41;16.40;;;15.40;;
15905;SDS011;8051;50.820;4.884;2023-09-18T07:54:13;16.77;;;15.73;;
15905;SDS011;8051;50.820;4.884;2023-09-18T07:56:42;14.70;;;13.80;;
15905;SDS011;8051;50.820;4.884;2023-09-18T07:59:11;14.77;;;13.77;;
15905;SDS011;8051;50.820;4.884;2023-09-18T08:01:39;15.63;;;14.63;;
15905;SDS011;8051;50.820;4.884;2023-09-18T08:04:07;15.23;;;14.13;;
15905;SDS011;8051;50.820;4.884;2023-09-18T08:06:35;15.23;;;14.27;;
15905;SDS011;8051;50.820;4.884;2023-09-18T08:09:03;17.00;;;15.80;;
15905;SDS011;8051;50.820;4.884;2023-09-18T08:11:30;16.90;;;15.37;;
15905;SDS011;8051;50.820;4.884;2023-09-18T08:13:58;16.03;;;14.93;;
15905;SDS011;8051;50.820;4.884;2023-09-18T08:16:27;16.10;;;15.10;;
15905;SDS011;8051;50.820;4.884;2023-09-18T08:18:54;15.70;;;14.60;;
15905;SDS011;8051;50.820;4.884;2023-09-18T08:21:22;17.23;;;16.00;;
15905;SDS011;8051;50.820;4.884;2023-09-18T08:23:50;16.97;;;15.97;;
15905;SDS011;8051;50.820;4.884;2023-09-18T08:26:17;16.20;;;15.17;;
15905;SDS011;8051;50.820;4.884;2023-09-18T08:28:45;16.17;;;15.10;;
15905;SDS011;8051;50.820;4.884;2023-09-18T08:31:12;16.97;;;15.97;;
15905;SDS011;8051;50.820;4.884;2023-09-18T08:33:43;15.77;;;14.87;;
15905;SDS011;8051;50.820;4.884;2023-09-18T08:36:10;16.80;;;15.60;;
15905;SDS011;8051;50.820;4.884;2023-09-18T08:38:38;18.57;;;17.17;;
15905;SDS011;8051;50.820;4.884;2023-09-18T08:41:05;19.27;;;17.70;;
15905;SDS011;8051;50.820;4.884;2023-09-18T08:43:34;17.90;;;16.80;;
15905;SDS011;8051;50.820;4.884;2023-09-18T08:46:03;17.93;;;16.93;;
15905;SDS011;8051;50.820;4.884;2023-09-18T08:48:31;18.80;;;17.70;;
15905;SDS011;8051;50.820;4.884;2023-09-18T08:51:03;18.13;;;16.70;;
15905;SDS011;8051;50.820;4.884;2023-09-18T08:53:32;19.47;;;18.20;;
15905;SDS011;8051;50.820;4.884;2023-09-18T08:56:00;18.57;;;17.50;;
15905;SDS011;8051;50.820;4.884;2023-09-18T08:58:29;18.40;;;17.00;;
15905;SDS011;8051;50.820;4.884;2023-09-18T09:01:01;19.43;;;18.03;;
15905;SDS011;8051;50.820;4.884;2023-09-18T09:03:31;19.50;;;18.40;;
15905;SDS011;8051;50.820;4.884;2023-09-18T09:05:59;20.30;;;18.90;;
15905;SDS011;8051;50.820;4.884;2023-09-18T09:08:28;19.03;;;17.73;;
15905;SDS011;8051;50.820;4.884;2023-09-18T09:10:56;18.33;;;17.23;;
15905;SDS011;8051;50.820;4.884;2023-09-18T09:13:24;21.77;;;20.17;;
15905;SDS011;8051;50.820;4.884;2023-09-18T09:15:52;19.40;;;18.30;;
15905;SDS011;8051;50.820;4.884;2023-09-18T09:18:22;18.83;;;17.63;;
15905;SDS011;8051;50.820;4.884;2023-09-18T09:20:54;20.13;;;18.60;;
15905;SDS011;8051;50.820;4.884;2023-09-18T09:23:24;17.23;;;16.17;;
15905;SDS011;8051;50.820;4.884;2023-09-18T09:25:54;17.53;;;16.50;;
15905;SDS011;8051;50.820;4.884;2023-09-18T09:28:38;17.50;;;16.13;;
15905;SDS011;8051;50.820;4.884;2023-09-18T09:31:08;17.97;;;16.87;;
15905;SDS011;8051;50.820;4.884;2023-09-18T09:33:36;16.97;;;15.80;;
15905;SDS011;8051;50.820;4.884;2023-09-18T09:36:06;18.53;;;17.20;;
15905;SDS011;8051;50.820;4.884;2023-09-18T09:38:34;15.53;;;14.63;;
15905;SDS011;8051;50.820;4.884;2023-09-18T09:41:03;17.93;;;16.90;;
15905;SDS011;8051;50.820;4.884;2023-09-18T09:43:32;20.47;;;18.97;;
15905;SDS011;8051;50.820;4.884;2023-09-18T09:46:00;21.23;;;19.80;;
15905;SDS011;8051;50.820;4.884;2023-09-18T09:48:28;21.17;;;19.63;;
15905;SDS011;8051;50.820;4.884;2023-09-18T09:50:58;20.40;;;19.20;;
15905;SDS011;8051;50.820;4.884;2023-09-18T09:53:41;19.63;;;18.43;;
15905;SDS011;8051;50.820;4.884;2023-09-18T09:56:11;19.83;;;18.63;;
15905;SDS011;8051;50.820;4.884;2023-09-18T09:58:39;20.57;;;19.03;;
15905;SDS011;8051;50.820;4.884;2023-09-18T10:01:10;18.90;;;17.80;;
15905;SDS011;8051;50.820;4.884;2023-09-18T10:03:43;20.10;;;18.57;;
15905;SDS011;8051;50.820;4.884;2023-09-18T10:06:12;20.43;;;19.10;;
15905;SDS011;8051;50.820;4.884;2023-09-18T10:08:40;18.00;;;16.90;;
15905;SDS011;8051;50.820;4.884;2023-09-18T10:11:08;19.13;;;18.00;;
15905;SDS011;8051;50.820;4.884;2023-09-18T10:13:43;20.33;;;19.03;;
15905;SDS011;8051;50.820;4.884;2023-09-18T10:16:15;17.93;;;16.67;;
15905;SDS011;8051;50.820;4.884;2023-09-18T10:18:49;20.37;;;18.97;;
15905;SDS011;8051;50.820;4.884;2023-09-18T10:21:25;18.27;;;16.97;;
15905;SDS011;8051;50.820;4.884;2023-09-18T10:24:02;19.83;;;18.43;;
15905;SDS011;8051;50.820;4.884;2023-09-18T10:26:41;19.03;;;17.73;;
15905;SDS011;8051;50.820;4.884;2023-09-18T10:29:15;19.93;;;18.70;;
15905;SDS011;8051;50.820;4.884;2023-09-18T10:31:44;21.33;;;20.10;;
15905;SDS011;8051;50.820;4.884;2023-09-18T10:34:12;19.87;;;18.60;;
15905;SDS011;8051;50.820;4.884;2023-09-18T10:36:42;18.63;;;17.60;;
15905;SDS011;8051;50.820;4.884;2023-09-18T10:39:11;20.17;;;18.97;;
15905;SDS011;8051;50.820;4.884;2023-09-18T10:41:40;20.50;;;19.20;;
15905;SDS011;8051;50.820;4.884;2023-09-18T10:44:08;20.40;;;19.10;;
15905;SDS011;8051;50.820;4.884;2023-09-18T10:46:37;19.17;;;17.77;;
15905;SDS011;8051;50.820;4.884;2023-09-18T10:49:05;17.87;;;16.80;;
15905;SDS011;8051;50.820;4.884;2023-09-18T10:51:32;20.70;;;19.13;;
15905;SDS011;8051;50.820;4.884;2023-09-18T10:54:00;21.00;;;19.53;;
15905;SDS011;8051;50.820;4.884;2023-09-18T10:56:28;19.83;;;18.67;;
15905;SDS011;8051;50.820;4.884;2023-09-18T10:58:59;19.07;;;18.03;;
15905;SDS011;8051;50.820;4.884;2023-09-18T11:01:29;20.40;;;19.00;;
15905;SDS011;8051;50.820;4.884;2023-09-18T11:03:57;20.17;;;18.77;;
15905;SDS011;8051;50.820;4.884;2023-09-18T11:06:27;19.70;;;18.50;;
15905;SDS011;8051;50.820;4.884;2023-09-18T11:08:59;18.23;;;17.13;;
15905;SDS011;8051;50.820;4.884;2023-09-18T11:11:29;18.73;;;17.70;;
15905;SDS011;8051;50.820;4.884;2023-09-18T11:13:59;16.70;;;15.40;;
15905;SDS011;8051;50.820;4.884;2023-09-18T11:16:34;16.50;;;15.60;;
15905;SDS011;8051;50.820;4.884;2023-09-18T11:19:16;14.43;;;13.60;;
15905;SDS011;8051;50.820;4.884;2023-09-18T11:21:45;18.60;;;17.47;;
15905;SDS011;8051;50.820;4.884;2023-09-18T11:24:16;17.40;;;16.50;;
15905;SDS011;8051;50.820;4.884;2023-09-18T11:26:47;18.20;;;16.90;;
15905;SDS011;8051;50.820;4.884;2023-09-18T11:29:21;15.47;;;14.60;;
15905;SDS011;8051;50.820;4.884;2023-09-18T11:31:52;17.70;;;16.67;;
15905;SDS011;8051;50.820;4.884;2023-09-18T11:34:21;16.77;;;15.87;;
15905;SDS011;8051;50.820;4.884;2023-09-18T11:36:49;17.73;;;16.60;;
15905;SDS011;8051;50.820;4.884;2023-09-18T11:39:32;17.77;;;16.43;;
15905;SDS011;8051;50.820;4.884;2023-09-18T11:42:08;16.00;;;14.90;;
15905;SDS011;8051;50.820;4.884;2023-09-18T11:44:39;17.10;;;15.40;;
15905;SDS011;8051;50.820;4.884;2023-09-18T11:47:11;18.40;;;17.30;;
15905;SDS011;8051;50.820;4.884;2023-09-18T11:49:46;17.00;;;15.80;;
15905;SDS011;8051;50.820;4.884;2023-09-18T11:52:16;14.90;;;13.90;;
15905;SDS011;8051;50.820;4.884;2023-09-18T11:54:44;17.57;;;16.47;;
15905;SDS011;8051;50.820;4.884;2023-09-18T11:57:13;17.57;;;16.40;;
15905;SDS011;8051;50.820;4.884;2023-09-18T11:59:43;18.50;;;17.40;;
15905;SDS011;8051;50.820;4.884;2023-09-18T12:02:11;15.00;;;14.13;;
15905;SDS011;8051;50.820;4.884;2023-09-18T12:04:46;14.27;;;13.23;;
15905;SDS011;8051;50.820;4.884;2023-09-18T12:07:14;13.93;;;13.03;;
15905;SDS011;8051;50.820;4.884;2023-09-18T12:09:41;16.10;;;14.93;;
15905;SDS011;8051;50.820;4.884;2023-09-18T12:12:09;16.70;;;15.73;;
15905;SDS011;8051;50.820;4.884;2023-09-18T12:14:39;17.03;;;15.60;;
15905;SDS011;8051;50.820;4.884;2023-09-18T12:17:09;16.90;;;15.80;;
15905;SDS011;8051;50.820;4.884;2023-09-18T12:19:49;18.00;;;17.00;;
15905;SDS011;8051;50.820;4.884;2023-09-18T12:22:22;18.60;;;17.27;;
15905;SDS011;8051;50.820;4.884;2023-09-18T12:24:53;15.80;;;14.90;;
15905;SDS011;8051;50.820;4.884;2023-09-18T12:27:35;16.80;;;15.80;;
15905;SDS011;8051;50.820;4.884;2023-09-18T12:30:03;15.27;;;14.57;;
15905;SDS011;8051;50.820;4.884;2023-09-18T12:32:33;13.90;;;13.10;;
15905;SDS011;8051;50.820;4.884;2023-09-18T12:35:03;15.43;;;14.53;;
15905;SDS011;8051;50.820;4.884;2023-09-18T12:37:33;16.20;;;15.30;;
15905;SDS011;8051;50.820;4.884;2023-09-18T12:40:02;14.43;;;13.63;;
15905;SDS011;8051;50.820;4.884;2023-09-18T12:42:36;16.17;;;15.17;;
15905;SDS011;8051;50.820;4.884;2023-09-18T12:45:06;17.23;;;15.87;;
15905;SDS011;8051;50.820;4.884;2023-09-18T12:47:36;15.07;;;14.17;;
15905;SDS011;8051;50.820;4.884;2023-09-18T12:50:05;14.83;;;13.83;;
15905;SDS011;8051;50.820;4.884;2023-09-18T12:52:36;16.63;;;15.47;;
15905;SDS011;8051;50.820;4.884;2023-09-18T12:55:03;16.03;;;14.83;;
15905;SDS011;8051;50.820;4.884;2023-09-18T12:57:31;14.80;;;13.87;;
15905;SDS011;8051;50.820;4.884;2023-09-18T12:59:59;15.47;;;14.50;;
15905;SDS011;8051;50.820;4.884;2023-09-18T13:02:37;15.87;;;14.87;;
15905;SDS011;8051;50.820;4.884;2023-09-18T13:05:06;15.20;;;14.40;;
15905;SDS011;8051;50.820;4.884;2023-09-18T13:07:42;17.73;;;16.67;;
15905;SDS011;8051;50.820;4.884;2023-09-18T13:10:11;17.40;;;16.00;;
15905;SDS011;8051;50.820;4.884;2023-09-18T13:12:40;16.67;;;15.67;;
15905;SDS011;8051;50.820;4.884;2023-09-18T13:15:23;15.10;;;14.03;;
15905;SDS011;8051;50.820;4.884;2023-09-18T13:17:54;14.63;;;13.93;;
15905;SDS011;8051;50.820;4.884;2023-09-18T13:20:22;14.07;;;13.37;;
15905;SDS011;8051;50.820;4.884;2023-09-18T13:22:52;14.97;;;14.00;;
15905;SDS011;8051;50.820;4.884;2023-09-18T13:25:20;15.93;;;15.03;;
15905;SDS011;8051;50.820;4.884;2023-09-18T13:27:48;15.43;;;14.53;;
15905;SDS011;8051;50.820;4.884;2023-09-18T13:30:17;15.07;;;14.10;;
15905;SDS011;8051;50.820;4.884;2023-09-18T13:32:46;15.50;;;14.57;;
15905;SDS011;8051;50.820;4.884;2023-09-18T13:35:16;12.57;;;11.50;;
15905;SDS011;8051;50.820;4.884;2023-09-18T13:37:44;16.33;;;15.27;;
15905;SDS011;8051;50.820;4.884;2023-09-18T13:40:12;15.00;;;14.20;;
15905;SDS011;8051;50.820;4.884;2023-09-18T13:42:39;14.67;;;13.80;;
15905;SDS011;8051;50.820;4.884;2023-09-18T13:45:07;12.83;;;12.23;;
15905;SDS011;8051;50.820;4.884;2023-09-18T13:47:36;16.00;;;15.10;;
15905;SDS011;8051;50.820;4.884;2023-09-18T13:50:03;13.90;;;13.20;;
15905;SDS011;8051;50.820;4.884;2023-09-18T13:52:34;14.30;;;13.37;;
15905;SDS011;8051;50.820;4.884;2023-09-18T13:55:02;17.40;;;16.10;;
15905;SDS011;8051;50.820;4.884;2023-09-18T13:57:31;17.67;;;16.33;;
15905;SDS011;8051;50.820;4.884;2023-09-18T13:59:59;15.47;;;14.30;;
15905;SDS011;8051;50.820;4.884;2023-09-18T14:02:30;15.27;;;14.30;;
15905;SDS011;8051;50.820;4.884;2023-09-18T14:04:57;16.03;;;15.13;;
15905;SDS011;8051;50.820;4.884;2023-09-18T14:07:25;14.90;;;14.03;;
15905;SDS011;8051;50.820;4.884;2023-09-18T14:09:54;16.40;;;15.40;;
15905;SDS011;8051;50.820;4.884;2023-09-18T14:12:22;13.67;;;12.90;;
15905;SDS011;8051;50.820;4.884;2023-09-18T14:14:49;11.93;;;11.17;;
15905;SDS011;8051;50.820;4.884;2023-09-18T14:17:17;13.33;;;12.43;;
15905;SDS011;8051;50.820;4.884;2023-09-18T14:19:47;13.57;;;12.73;;
15905;SDS011;8051;50.820;4.884;2023-09-18T14:22:14;13.43;;;12.67;;
15905;SDS011;8051;50.820;4.884;2023-09-18T14:24:42;13.03;;;12.23;;
15905;SDS011;8051;50.820;4.884;2023-09-18T14:27:11;12.33;;;11.73;;
15905;SDS011;8051;50.820;4.884;2023-09-18T14:29:38;11.60;;;11.00;;
15905;SDS011;8051;50.820;4.884;2023-09-18T14:32:06;9.50;;;9.00;;
15905;SDS011;8051;50.820;4.884;2023-09-18T14:34:33;11.33;;;10.53;;
15905;SDS011;8051;50.820;4.884;2023-09-18T14:37:01;12.07;;;11.37;;
15905;SDS011;8051;50.820;4.884;2023-09-18T14:39:30;10.87;;;10.30;;
15905;SDS011;8051;50.820;4.884;2023-09-18T14:41:57;14.00;;;13.00;;
15905;SDS011;8051;50.820;4.884;2023-09-18T14:44:27;13.27;;;12.57;;
15905;SDS011;8051;50.820;4.884;2023-09-18T14:46:55;15.10;;;14.13;;
15905;SDS011;8051;50.820;4.884;2023-09-18T14:49:23;15.77;;;14.57;;
15905;SDS011;8051;50.820;4.884;2023-09-18T14:51:53;14.30;;;13.60;;
15905;SDS011;8051;50.820;4.884;2023-09-18T14:54:21;16.87;;;15.77;;